Concordia, KS

4:46 PM CDT on August 31, 2015 (GMT -0500)
Wind Energy Composite Lab | | Change Station
CLOSE
Current Station
Personal Weather Station
Location: Concordia, KS
Elevation: 1457 ft
Nearby Weather Stations

Elev 1457 ft 39.56 °N, 97.66 °W | Updated 18 seconds ago

Clear
Clear
93.0 °F
Feels Like 97 °F
N
8.1
Wind Variable Wind from SE
Gusts 14.0 mph

Today
High -- | Low -- °F
--% Chance of Precip.
Yesterday
High -- | Low -- °F
Precip. -- in
6:57 AM 8:03 PM
Waning Gibbous, 93% visible
Pressure 29.85 in
Visibility 10.0 miles
Clouds Clear
Heat Index 97 °F
Dew Point 67 °F
Humidity 43%
Rainfall 0.00 in
Snow Depth Not available.
UV 7 out of 12
Pollen 10.50 out of 12
Air Quality Not available.
Flu Activity Not available.
METAR KCNK 312055Z AUTO 16009KT 10SM CLR 33/18 A2990 RMK AO2 SLP107 T03280178 56014
Pressure 29.85 in
Visibility 10.0 miles
Clouds Clear
Heat Index 97 °F
Dew Point 67 °F
Humidity 43%
Rainfall 0.00 in
Snow Depth Not available.
UV 7 out of 12
Pollen 10.50 out of 12
Air Quality Not available.
Flu Activity Not available.
METAR KCNK 312055Z AUTO 16009KT 10SM CLR 33/18 A2990 RMK AO2 SLP107 T03280178 56014

10-Day Weather Forecast

×

Almanac

Astronomy

Aug. 31, 2015 Rise Set
Actual Time
Civil Twilight
Nautical Twilight
Astronomical Twilight
Moon
Length of Visible Light
Length of Day
Tomorrow will be .
, % of the Moon is Illuminated

Today's Extremes

State Highs State Lows

Community

WunderPhotos

Upload Photos

1,851,377 photos uploaded!

WunderBlogs® & News

Nearby

Air Quality

  Air Quality AQ Index Pollutant
Not available.

Snow Depth

Station Depth Elevation

Earthquake Activity

City Distance Mag. Time & Date
Minimum magnitude displayed is 2.5.

Coastal Water Temperatures

Place Temperature

Stations

Nearby Weather Stations

Station Location Temp. Windchill Dew Point Humidity Wind Precip. Elev Updated Type